Ocean Starr — WDG2073 — position and weather

sailwx.info

Track history (hours):
 
Tides and Currents Weather Stations Pressure Air Temp Water Temp Dewpoint Dewpoint Depression Visibility Wind Speed Wind Dir Waves Ship Positions

Oceanographic research ship Ocean Starr (USA)

Owner: Ocean Starr Holding, LLC, Seattle, WA. More information available from US FCC via Universal Licensing System and Coast Guard Vessel Documentation Center.

Last reported at 2019-Jul-23 21:26 UTC. Time now 2019-Sep-22 02:01 UTC.
Position N 48°59' W 126°34'.
Warning: this ship's position is months out of date.

Length 56 m; draft 4 m.

Type: Other ship. MMSI: 367122000.

Date/timePositionNaut miles runAvg speedWind from/ knotsBaromVisibWave heightAir tempDewpointWater temp
2019-Jul-23 21:26N 48°59' W 126°34'3 7.6
2019-Jul-23 21:00N 48°58' W 126°30'4 7.1
2019-Jul-23 20:30N 48°56' W 126°25'4 8.0
2019-Jul-23 20:00N 48°55' W 126°19'4 7.8
2019-Jul-23 19:30N 48°53' W 126°14'4 7.7
2019-Jul-23 19:00N 48°51' W 126°08'4 7.7
2019-Jul-23 18:30N 48°50' W 126°03'4 8.3
2019-Jul-23 18:00N 48°48' W 125°58'4 8.2
2019-Jul-23 17:30N 48°46' W 125°52'4 8.1
2019-Jul-23 17:00N 48°44' W 125°47'4 8.1
2019-Jul-23 16:30N 48°42' W 125°41'4 8.3
2019-Jul-23 16:01N 48°40' W 125°36'4 8.4
2019-Jul-23 15:30N 48°39' W 125°30'4 8.1
2019-Jul-23 15:01N 48°37' W 125°24'4 8.2
2019-Jul-23 14:30N 48°35' W 125°19'4 8.3
2019-Jul-23 14:00N 48°34' W 125°13'4 8.5
2019-Jul-23 13:30N 48°33' W 125°06'4 8.4
2019-Jul-23 13:00N 48°32' W 125°00'4 8.6
2019-Jul-23 12:30N 48°32' W 124°54'4 9.0
2019-Jul-23 12:00N 48°32' W 124°47'5 9.3
2019-Jul-23 11:30N 48°31' W 124°40'5 9.3
2019-Jul-23 11:00N 48°29' W 124°34'5 9.2
2019-Jul-23 10:30N 48°27' W 124°27'5 9.5
2019-Jul-23 10:00N 48°25' W 124°21'5 9.6
2019-Jul-23 09:30N 48°23' W 124°14'5 9.6
2019-Jul-23 09:00N 48°21' W 124°08'5 9.4
2019-Jul-23 08:30N 48°20' W 124°01'5 9.6
2019-Jul-23 07:59N 48°18' W 123°54'5 9.4
2019-Jul-23 07:30N 48°17' W 123°47'5 9.2
2019-Jul-23 06:57N 48°17' W 123°40'4 9.0
2019-Jul-23 06:29N 48°16' W 123°33'4 8.5
2019-Jul-23 06:00N 48°15' W 123°27'4 7.7
2019-Jul-23 05:30N 48°15' W 123°22'4 7.8
2019-Jul-23 05:00N 48°14' W 123°16'4 7.9
2019-Jul-23 04:30N 48°13' W 123°10'4 7.6
2019-Jul-23 04:00N 48°13' W 123°04'4 7.1
2019-Jul-23 03:30N 48°13' W 122°59'4 7.0
2019-Jul-23 02:54N 48°12' W 122°53'6 5.5
2019-Jul-23 01:44N 48°10' W 122°44'1 4.6
2019-Jul-23 01:30N 48°09' W 122°43'2 4.5
2019-Jul-23 00:57N 48°08' W 122°40'3 6.7
2019-Jul-23 00:29N 48°05' W 122°38'4 7.3
2019-Jul-22 23:59N 48°01' W 122°37'4 7.5
2019-Jul-22 23:30N 47°58' W 122°34'4 8.0
2019-Jul-22 23:00N 47°56' W 122°29'4 8.3
2019-Jul-22 22:30N 47°52' W 122°27'4 8.6
2019-Jul-22 22:00N 47°48' W 122°26'4 8.7
2019-Jul-22 21:30N 47°43' W 122°25'3 6.7
2019-Jul-22 21:00N 47°40' W 122°24'0 0.6
2019-Jul-22 20:31N 47°40' W 122°23'0 0.2
2019-Jul-22 20:00N 47°40' W 122°24'0 0.0
2019-Jul-22 19:30N 47°40' W 122°24'0 0.0
2019-Jul-22 19:00N 47°40' W 122°24'0 0.0
2019-Jul-22 18:30N 47°40' W 122°24'0 0.0
2019-Jul-22 18:00N 47°40' W 122°24'0 0.0
2019-Jul-22 17:30N 47°40' W 122°24'0 0.0
2019-Jul-22 17:00N 47°40' W 122°24'0 0.0
2019-Jul-22 16:30N 47°40' W 122°24'0 0.0
2019-Jul-22 16:00N 47°40' W 122°24'0 0.0
2019-Jul-22 15:30N 47°40' W 122°24'0 0.0
2019-Jul-22 15:00N 47°40' W 122°24'0 0.0
2019-Jul-22 14:30N 47°40' W 122°24'0 0.0
2019-Jul-22 14:00N 47°40' W 122°24'0 0.0
2019-Jul-22 13:30N 47°40' W 122°24'0 0.0
2019-Jul-22 13:00N 47°40' W 122°24'0 0.0
2019-Jul-22 12:30N 47°40' W 122°24'0 0.0
2019-Jul-22 12:00N 47°40' W 122°24'0 0.0
2019-Jul-22 11:30N 47°40' W 122°24'0 0.0
2019-Jul-22 11:00N 47°40' W 122°24'0 0.0
2019-Jul-22 10:30N 47°40' W 122°24'0 0.0
2019-Jul-22 10:00N 47°40' W 122°24'0 0.0
2019-Jul-22 09:30N 47°40' W 122°24'0 0.0
2019-Jul-22 09:00N 47°40' W 122°24'0 0.0
2019-Jul-22 08:30N 47°40' W 122°24'0 0.0
2019-Jul-22 08:00N 47°40' W 122°24'0 0.0
2019-Jul-22 07:30N 47°40' W 122°24'0 0.0
2019-Jul-22 07:00N 47°40' W 122°24'0 0.0
2019-Jul-22 06:30N 47°40' W 122°24'0 0.0
2019-Jul-22 06:00N 47°40' W 122°24'0 0.0
2019-Jul-22 05:30N 47°40' W 122°24'0 0.0
2019-Jul-22 05:00N 47°40' W 122°24'0 0.0
2019-Jul-22 04:30N 47°40' W 122°24'0 0.0
2019-Jul-22 04:00N 47°40' W 122°24'0 0.0
2019-Jul-22 03:30N 47°40' W 122°24'0 0.0
2019-Jul-22 03:00N 47°40' W 122°24'0 0.0
2019-Jul-22 02:30N 47°40' W 122°24'0 0.0
2019-Jul-22 02:00N 47°40' W 122°24'0 0.2
2019-Jul-22 01:30N 47°40' W 122°23'0 0.4
2019-Jul-22 01:00N 47°40' W 122°24'0 0.5
2019-Jul-22 00:30N 47°40' W 122°24'2 3.7
2019-Jul-22 00:00N 47°42' W 122°25'2 3.5
2019-Jul-21 23:30N 47°43' W 122°25'2 3.0
2019-Jul-21 23:00N 47°45' W 122°25'3 6.2
2019-Jul-21 22:30N 47°43' W 122°29'1 2.9
2019-Jul-21 22:00N 47°43' W 122°31'0 0.0
2019-Jul-21 21:30N 47°43' W 122°31'0 0.0
2019-Jul-21 21:00N 47°43' W 122°31'0 0.0
2019-Jul-21 20:30N 47°43' W 122°31'0 0.0
2019-Jul-21 20:00N 47°43' W 122°31'0 0.0
2019-Jul-21 19:30N 47°43' W 122°31'0 0.0
2019-Jul-21 19:00N 47°43' W 122°31'0 0.0
2019-Jul-21 18:30N 47°43' W 122°31'0 0.0
2019-Jul-21 18:00N 47°43' W 122°31'0 0.0
2019-Jul-21 17:30N 47°43' W 122°31'0 0.0
2019-Jul-21 17:00N 47°43' W 122°31'0 0.1
2019-Jul-21 16:30N 47°43' W 122°31'0 0.0
2019-Jul-21 16:00N 47°43' W 122°31'0 0.1
2019-Jul-21 15:30N 47°43' W 122°31'0 0.9
2019-Jul-21 15:00N 47°43' W 122°30'4 7.5
2019-Jul-21 14:30N 47°41' W 122°25'1 1.3
2019-Jul-21 14:01N 47°41' W 122°25'0 0.3
2019-Jul-21 13:31N 47°41' W 122°25'1 1.3
2019-Jul-21 12:58N 47°40' W 122°26'0 0.0
2019-Jul-21 12:28N 47°40' W 122°26'0 0.0
2019-Jul-21 12:01N 47°40' W 122°26'0 0.1
2019-Jul-21 11:31N 47°40' W 122°26'0 0.1
2019-Jul-21 11:00N 47°40' W 122°26'0 0.0
2019-Jul-21 10:30N 47°40' W 122°26'0 0.1
2019-Jul-21 10:00N 47°40' W 122°26'0 0.1
2019-Jul-21 09:30N 47°40' W 122°26'0 0.0
2019-Jul-21 09:00N 47°40' W 122°26'0 0.0
2019-Jul-21 08:30N 47°40' W 122°26'0 0.0
2019-Jul-21 08:00N 47°40' W 122°26'0 0.1
2019-Jul-21 07:30N 47°40' W 122°26'0 0.1
2019-Jul-21 07:00N 47°40' W 122°26'0 0.0
2019-Jul-21 06:30N 47°40' W 122°26'0 0.0
2019-Jul-21 06:00N 47°40' W 122°26'0 0.0
2019-Jul-21 05:30N 47°40' W 122°26'0 0.0
2019-Jul-21 05:00N 47°40' W 122°26'0 0.0
2019-Jul-21 04:30N 47°40' W 122°26'0 0.0
2019-Jul-21 04:00N 47°40' W 122°26'0 0.0
2019-Jul-21 03:30N 47°40' W 122°26'0 0.2
2019-Jul-21 03:00N 47°40' W 122°26'1 1.7
2019-Jul-21 02:30N 47°41' W 122°25'0 0.5
2019-Jul-21 02:00N 47°41' W 122°25'4 7.8
2019-Jul-21 01:30N 47°45' W 122°25'0 0.5
2019-Jul-21 01:00N 47°45' W 122°25'1 2.2
2019-Jul-21 00:30N 47°44' W 122°25'1 1.8
2019-Jul-21 00:00N 47°45' W 122°25'1 2.4
2019-Jul-20 23:30N 47°46' W 122°25'2 3.2
2019-Jul-20 23:01N 47°45' W 122°27'1 2.0
2019-Jul-20 22:30N 47°45' W 122°26'1 2.9
2019-Jul-20 22:00N 47°44' W 122°25'0 0.7
2019-Jul-20 21:30N 47°43' W 122°25'2 3.2
2019-Jul-20 21:00N 47°45' W 122°24'2 3.3
2019-Jul-20 20:30N 47°46' W 122°25'1 1.5
2019-Jul-20 20:00N 47°47' W 122°25'1 1.1
2019-Jul-20 19:30N 47°47' W 122°25'1 2.6
2019-Jul-20 19:00N 47°45' W 122°24'1 2.8
2019-Jul-20 18:30N 47°44' W 122°24'1 1.9
2019-Jul-20 18:00N 47°43' W 122°24'1 1.5
2019-Jul-20 17:30N 47°44' W 122°25'1 1.7
2019-Jul-20 17:00N 47°45' W 122°24'1 1.3
2019-Jul-20 16:30N 47°44' W 122°25'1 2.5
2019-Jul-20 16:00N 47°43' W 122°25'1 1.7
2019-Jul-20 15:30N 47°42' W 122°25'1 1.9
2019-Jul-20 15:00N 47°41' W 122°25'1 2.7
2019-Jul-20 14:30N 47°40' W 122°24'0 0.4
2019-Jul-20 14:00N 47°40' W 122°24'0 0.0
2019-Jul-20 13:30N 47°40' W 122°24'0 0.0
2019-Jul-20 13:00N 47°40' W 122°24'0 0.0
2019-Jul-20 12:30N 47°40' W 122°24'0 0.0
2019-Jul-20 12:00N 47°40' W 122°24'0 0.0
2019-Jul-20 11:30N 47°40' W 122°24'0 0.0
2019-Jul-20 11:00N 47°40' W 122°24'0 0.0
2019-Jul-20 10:30N 47°40' W 122°24'0 0.0
2019-Jul-20 10:00N 47°40' W 122°24'0 0.0
2019-Jul-20 09:30N 47°40' W 122°24'0 0.0
2019-Jul-20 09:00N 47°40' W 122°24'0 0.0
2019-Jul-20 08:30N 47°40' W 122°24'0 0.0
2019-Jul-20 08:00N 47°40' W 122°24'0 0.0
2019-Jul-20 07:30N 47°40' W 122°24'0 0.0
2019-Jul-20 07:00N 47°40' W 122°24'0 0.0
2019-Jul-20 06:30N 47°40' W 122°24'0 0.0
2019-Jul-20 06:00N 47°40' W 122°24'0 0.0
2019-Jul-20 05:30N 47°40' W 122°24'0 0.0
2019-Jul-20 05:00N 47°40' W 122°24'0 0.0
2019-Jul-20 04:30N 47°40' W 122°24'0 0.0
2019-Jul-20 04:00N 47°40' W 122°24'0 0.0
2019-Jul-20 03:30N 47°40' W 122°24'0 0.0
2019-Jul-20 03:00N 47°40' W 122°24'0 0.0
2019-Jul-20 02:30N 47°40' W 122°24'0 0.0
2019-Jul-20 02:00N 47°40' W 122°24'0 0.0
2019-Jul-20 01:30N 47°40' W 122°24'0 0.0
2019-Jul-20 01:00N 47°40' W 122°24'0 0.0
2019-Jul-20 00:30N 47°40' W 122°24'0 0.0
2019-Jul-20 00:00N 47°40' W 122°24'0 0.0
2019-Jul-19 23:30N 47°40' W 122°24'0 0.0
2019-Jul-19 23:00N 47°40' W 122°24'0 0.0
2019-Jul-19 22:30N 47°40' W 122°24'0 0.0
2019-Jul-19 22:00N 47°40' W 122°24'0 0.0
2019-Jul-19 21:30N 47°40' W 122°24'0 0.0
2019-Jul-19 21:00N 47°40' W 122°24'0 0.0
2019-Jul-19 20:30N 47°40' W 122°24'0 0.0
2019-Jul-19 20:00N 47°40' W 122°24'0 0.0
2019-Jul-19 19:30N 47°40' W 122°24'0 0.0
2019-Jul-19 19:00N 47°40' W 122°24'0 0.0
2019-Jul-19 18:30N 47°40' W 122°24'0 0.0
2019-Jul-19 18:00N 47°40' W 122°24'0 0.0
2019-Jul-19 17:30N 47°40' W 122°24'0 0.0
2019-Jul-19 17:00N 47°40' W 122°24'0 0.0
2019-Jul-19 16:30N 47°40' W 122°24'0 0.0
2019-Jul-19 16:00N 47°40' W 122°24'0 0.0
2019-Jul-19 15:30N 47°40' W 122°24'0 0.0
2019-Jul-19 15:00N 47°40' W 122°24'0 0.0
2019-Jul-19 14:30N 47°40' W 122°24'0 0.0
2019-Jul-19 14:00N 47°40' W 122°24'0 0.0
2019-Jul-19 13:30N 47°40' W 122°24'0 0.0
2019-Jul-19 13:00N 47°40' W 122°24'0 0.0
2019-Jul-19 12:30N 47°40' W 122°24'0 0.0
2019-Jul-19 12:00N 47°40' W 122°24'0 0.0
2019-Jul-19 11:30N 47°40' W 122°24'0 0.0
2019-Jul-19 11:00N 47°40' W 122°24'0 0.0
2019-Jul-19 10:30N 47°40' W 122°24'0 0.0
2019-Jul-19 10:00N 47°40' W 122°24'0 0.0
2019-Jul-19 09:30N 47°40' W 122°24'0 0.0
2019-Jul-19 09:00N 47°40' W 122°24'0 0.0
2019-Jul-19 08:30N 47°40' W 122°24'0 0.0
2019-Jul-19 08:00N 47°40' W 122°24'0 0.0
2019-Jul-19 07:30N 47°40' W 122°24'0 0.0
2019-Jul-19 07:00N 47°40' W 122°24'0 0.0
2019-Jul-19 06:30N 47°40' W 122°24'0 0.0
2019-Jul-19 06:00N 47°40' W 122°24'0 0.0
2019-Jul-19 05:30N 47°40' W 122°24'0 0.0
2019-Jul-19 05:00N 47°40' W 122°24'0 0.0
2019-Jul-19 04:30N 47°40' W 122°24'0 0.0
2019-Jul-19 04:00N 47°40' W 122°24'0 0.0
2019-Jul-19 03:30N 47°40' W 122°24'0 0.0
2019-Jul-19 03:00N 47°40' W 122°24'0 0.0
2019-Jul-19 02:30N 47°40' W 122°24'0 0.0
2019-Jul-19 02:00N 47°40' W 122°24'0 0.0
2019-Jul-19 01:30N 47°40' W 122°24'0 0.0
2019-Jul-19 01:00N 47°40' W 122°24'0 0.0
2019-Jul-19 00:30N 47°40' W 122°24'0 0.0
2019-Jul-19 00:00N 47°40' W 122°24'0 0.0
2019-Jul-18 23:30N 47°40' W 122°24'0 0.0
2019-Jul-18 23:00N 47°40' W 122°24'0 0.0
2019-Jul-18 22:30N 47°40' W 122°24'0 0.0
2019-Jul-18 22:00N 47°40' W 122°24'0 0.0
2019-Jul-18 21:30N 47°40' W 122°24'0 0.3
2019-Jul-18 21:01N 47°40' W 122°23'0 0.2
2019-Jul-18 20:30N 47°40' W 122°23'0 0.0
2019-Jul-18 20:00N 47°40' W 122°23'0 0.0
2019-Jul-18 19:30N 47°40' W 122°23'0 0.0
2019-Jul-18 19:00N 47°40' W 122°23'0 0.0
2019-Jul-18 18:30N 47°40' W 122°23'0 0.0
2019-Jul-18 18:00N 47°40' W 122°23'0 0.0
2019-Jul-18 17:30N 47°40' W 122°23'0 0.0
2019-Jul-18 17:00N 47°40' W 122°23'0 0.0
2019-Jul-18 16:30N 47°40' W 122°23'0 0.3
2019-Jul-18 16:00N 47°40' W 122°24'0 0.1
2019-Jul-18 15:30N 47°40' W 122°24'0 0.0
2019-Jul-18 15:00N 47°40' W 122°24'0 0.0
2019-Jul-18 14:30N 47°40' W 122°24'0 0.0
2019-Jul-18 14:00N 47°40' W 122°24'0 0.0
2019-Jul-18 13:30N 47°40' W 122°24'0 0.0
2019-Jul-18 13:00N 47°40' W 122°24'0 0.0
2019-Jul-18 12:30N 47°40' W 122°24'0 0.0
2019-Jul-18 12:00N 47°40' W 122°24'0 0.0
2019-Jul-18 11:30N 47°40' W 122°24'0 0.0
2019-Jul-18 11:00N 47°40' W 122°24'0 0.0
2019-Jul-18 10:30N 47°40' W 122°24'0 0.0
2019-Jul-18 10:00N 47°40' W 122°24'0 0.0
2019-Jul-18 09:30N 47°40' W 122°24'0 0.0
2019-Jul-18 09:00N 47°40' W 122°24'0 0.0
2019-Jul-18 08:30N 47°40' W 122°24'0 0.0
2019-Jul-18 08:00N 47°40' W 122°24'0 0.0
2019-Jul-18 07:30N 47°40' W 122°24'0 0.0
2019-Jul-18 07:00N 47°40' W 122°24'0 0.0
2019-Jul-18 06:30N 47°40' W 122°24'0 0.0
2019-Jul-18 06:00N 47°40' W 122°24'0 0.0
2019-Jul-18 05:30N 47°40' W 122°24'0 0.0
2019-Jul-18 05:00N 47°40' W 122°24'0 0.0
2019-Jul-18 04:30N 47°40' W 122°24'0 0.0
2019-Jul-18 04:00N 47°40' W 122°24'0 0.0
2019-Jul-18 03:30N 47°40' W 122°24'0 0.0
2019-Jul-18 03:00N 47°40' W 122°24'0 0.0
2019-Jul-18 02:30N 47°40' W 122°24'0 0.0
2019-Jul-18 02:00N 47°40' W 122°24'0 0.0
2019-Jul-18 01:30N 47°40' W 122°24'0 0.0
2019-Jul-18 01:00N 47°40' W 122°24'0 0.0
2019-Jul-18 00:30N 47°40' W 122°24'0 0.0
2019-Jul-18 00:00N 47°40' W 122°24'0 0.0
2019-Jul-17 23:30N 47°40' W 122°24'0 0.0
2019-Jul-17 23:00N 47°40' W 122°24'0 0.0
2019-Jul-17 22:30N 47°40' W 122°24'0 0.0
2019-Jul-17 22:00N 47°40' W 122°24'0 0.0
2019-Jul-17 21:30N 47°40' W 122°24'0 0.0
2019-Jul-17 21:00N 47°40' W 122°24'0 0.0
2019-Jul-17 20:30N 47°40' W 122°24'0 0.0
2019-Jul-17 20:00N 47°40' W 122°24'0 0.0
2019-Jul-17 19:30N 47°40' W 122°24'0 0.0
2019-Jul-17 19:00N 47°40' W 122°24'0 0.0
2019-Jul-17 18:30N 47°40' W 122°24'0 0.0
2019-Jul-17 18:00N 47°40' W 122°24'0 0.0
2019-Jul-17 17:30N 47°40' W 122°24'0 0.0
2019-Jul-17 17:00N 47°40' W 122°24'0 0.0
2019-Jul-17 16:30N 47°40' W 122°24'0 0.0
2019-Jul-17 16:00N 47°40' W 122°24'0 0.0
2019-Jul-17 15:30N 47°40' W 122°24'0 0.0
2019-Jul-17 15:00N 47°40' W 122°24'0 0.0
2019-Jul-17 14:30N 47°40' W 122°24'0 0.0
2019-Jul-17 14:00N 47°40' W 122°24'0 0.0
2019-Jul-17 13:30N 47°40' W 122°24'0 0.0
2019-Jul-17 13:00N 47°40' W 122°24'0 0.0
2019-Jul-17 12:30N 47°40' W 122°24'0 0.0
2019-Jul-17 12:00N 47°40' W 122°24'0 0.0
2019-Jul-17 11:30N 47°40' W 122°24'0 0.0
2019-Jul-17 11:00N 47°40' W 122°24'0 0.0
2019-Jul-17 10:30N 47°40' W 122°24'0 0.0
2019-Jul-17 10:00N 47°40' W 122°24'0 0.0
2019-Jul-17 09:30N 47°40' W 122°24'0 0.0
2019-Jul-17 09:00N 47°40' W 122°24'0 0.0
2019-Jul-17 08:30N 47°40' W 122°24'0 0.0
2019-Jul-17 08:00N 47°40' W 122°24'0 0.0
2019-Jul-17 07:30N 47°40' W 122°24'0 0.0
2019-Jul-17 07:00N 47°40' W 122°24'0 0.0
2019-Jul-17 06:30N 47°40' W 122°24'0 0.0
2019-Jul-17 06:00N 47°40' W 122°24'0 0.0
2019-Jul-17 05:30N 47°40' W 122°24'0 0.0
2019-Jul-17 05:00N 47°40' W 122°24'0 0.0
2019-Jul-17 04:30N 47°40' W 122°24'0 0.0
2019-Jul-17 04:00N 47°40' W 122°24'0 0.0
2019-Jul-17 03:30N 47°40' W 122°24'0 0.0
2019-Jul-17 03:00N 47°40' W 122°24'0 0.0
2019-Jul-17 02:30N 47°40' W 122°24'0 0.0
2019-Jul-17 02:00N 47°40' W 122°24'0 0.0
2019-Jul-17 01:30N 47°40' W 122°24'0 0.0
2019-Jul-17 01:00N 47°40' W 122°24'0 0.0
2019-Jul-17 00:30N 47°40' W 122°24'0 0.0
2019-Jul-17 00:00N 47°40' W 122°24'0 0.0
2019-Jul-16 23:30N 47°40' W 122°24'0 0.0
2019-Jul-16 23:00N 47°40' W 122°24'0 0.0
2019-Jul-16 22:30N 47°40' W 122°24'0 0.0
2019-Jul-16 22:00N 47°40' W 122°24'0 0.0
2019-Jul-16 21:30N 47°40' W 122°24'0 0.0
2019-Jul-16 21:00N 47°40' W 122°24'0 0.0
2019-Jul-16 20:30N 47°40' W 122°24'0 0.0
2019-Jul-16 20:00N 47°40' W 122°24'0 0.0
2019-Jul-16 19:30N 47°40' W 122°24'0 0.0
2019-Jul-16 19:00N 47°40' W 122°24'0 0.0
2019-Jul-16 18:30N 47°40' W 122°24'0 0.0
2019-Jul-16 18:00N 47°40' W 122°24'0 0.0
2019-Jul-16 17:30N 47°40' W 122°24'0 0.0
2019-Jul-16 17:00N 47°40' W 122°24'0 0.0
2019-Jul-16 16:30N 47°40' W 122°24'0 0.0
2019-Jul-16 16:00N 47°40' W 122°24'0 0.0
2019-Jul-16 15:30N 47°40' W 122°24'0 0.0
2019-Jul-16 15:00N 47°40' W 122°24'0 0.0
2019-Jul-16 14:30N 47°40' W 122°24'0 0.0
2019-Jul-16 14:00N 47°40' W 122°24'0 0.0
2019-Jul-16 13:30N 47°40' W 122°24'0 0.0
2019-Jul-16 13:00N 47°40' W 122°24'0 0.0
2019-Jul-16 12:30N 47°40' W 122°24'0 0.0
2019-Jul-16 12:00N 47°40' W 122°24'0 0.0
2019-Jul-16 11:30N 47°40' W 122°24'0 0.0
2019-Jul-16 11:00N 47°40' W 122°24'0 0.0
2019-Jul-16 10:30N 47°40' W 122°24'0 0.0
2019-Jul-16 10:00N 47°40' W 122°24'0 0.0
2019-Jul-16 09:30N 47°40' W 122°24'0 0.0
2019-Jul-16 09:00N 47°40' W 122°24'0 0.0
2019-Jul-16 08:30N 47°40' W 122°24'0 0.0
2019-Jul-16 08:00N 47°40' W 122°24'0 0.0
2019-Jul-16 07:30N 47°40' W 122°24'0 0.0
2019-Jul-16 07:00N 47°40' W 122°24'0 0.0
2019-Jul-16 06:30N 47°40' W 122°24'0 0.0
2019-Jul-16 06:00N 47°40' W 122°24'0 0.0
2019-Jul-16 05:30N 47°40' W 122°24'0 0.0
2019-Jul-16 05:00N 47°40' W 122°24'0 0.0
2019-Jul-16 04:30N 47°40' W 122°24'0 0.0
2019-Jul-16 04:00N 47°40' W 122°24'0 0.0
2019-Jul-16 03:30N 47°40' W 122°24'0 0.0
2019-Jul-16 03:00N 47°40' W 122°24'0 0.0
2019-Jul-16 02:30N 47°40' W 122°24'0 0.0
2019-Jul-16 02:00N 47°40' W 122°24'0 0.0
2019-Jul-16 01:30N 47°40' W 122°24'0 0.0
2019-Jul-16 01:00N 47°40' W 122°24'0 0.0
2019-Jul-16 00:30N 47°40' W 122°24'0 0.0
2019-Jul-16 00:00N 47°40' W 122°24'0 0.0
2019-Jul-15 23:30N 47°40' W 122°24'0 0.0
2019-Jul-15 23:00N 47°40' W 122°24'0 0.0
2019-Jul-15 22:30N 47°40' W 122°24'0 0.0
2019-Jul-15 22:00N 47°40' W 122°24'0 0.0
2019-Jul-15 21:30N 47°40' W 122°24'0 0.0
2019-Jul-15 21:00N 47°40' W 122°24'0 0.0
2019-Jul-15 20:30N 47°40' W 122°24'0 0.0
2019-Jul-15 20:00N 47°40' W 122°24'0 0.0
2019-Jul-15 19:30N 47°40' W 122°24'0 0.0
2019-Jul-15 19:00N 47°40' W 122°24'0 0.0
2019-Jul-15 18:30N 47°40' W 122°24'0 0.0
2019-Jul-15 18:00N 47°40' W 122°24'0 0.0
2019-Jul-15 17:30N 47°40' W 122°24'0 0.0
2019-Jul-15 17:00N 47°40' W 122°24'0 0.0
2019-Jul-15 16:30N 47°40' W 122°24'0 0.0
2019-Jul-15 16:00N 47°40' W 122°24'0 0.0
2019-Jul-15 15:30N 47°40' W 122°24'0 0.0
2019-Jul-15 15:00N 47°40' W 122°24'0 0.0
2019-Jul-15 14:30N 47°40' W 122°24'0 0.0
2019-Jul-15 14:00N 47°40' W 122°24'0 0.0
2019-Jul-15 13:30N 47°40' W 122°24'0 0.0
2019-Jul-15 13:00N 47°40' W 122°24'0 0.0
2019-Jul-15 12:30N 47°40' W 122°24'0 0.0
2019-Jul-15 12:00N 47°40' W 122°24'0 0.0
2019-Jul-15 11:30N 47°40' W 122°24'0 0.0
2019-Jul-15 11:00N 47°40' W 122°24'0 0.0
2019-Jul-15 10:30N 47°40' W 122°24'0 0.0
2019-Jul-15 10:00N 47°40' W 122°24'0 0.0
2019-Jul-15 09:30N 47°40' W 122°24'0 0.0
2019-Jul-15 09:00N 47°40' W 122°24'0 0.0
2019-Jul-15 08:30N 47°40' W 122°24'0 0.0
2019-Jul-15 08:00N 47°40' W 122°24'0 0.0
2019-Jul-15 07:30N 47°40' W 122°24'0 0.0
2019-Jul-15 07:00N 47°40' W 122°24'0 0.0
2019-Jul-15 06:30N 47°40' W 122°24'0 0.0
2019-Jul-15 06:00N 47°40' W 122°24'0 0.0
2019-Jul-15 05:30N 47°40' W 122°24'0 0.0
2019-Jul-15 05:00N 47°40' W 122°24'0 0.0
2019-Jul-15 04:30N 47°40' W 122°24'0 0.0
2019-Jul-15 04:00N 47°40' W 122°24'0 0.0
2019-Jul-15 03:30N 47°40' W 122°24'0 0.0
2019-Jul-15 03:00N 47°40' W 122°24'0 0.0
2019-Jul-15 02:30N 47°40' W 122°24'0 0.0
2019-Jul-15 02:00N 47°40' W 122°24'0 0.0
2019-Jul-15 01:30N 47°40' W 122°24'0 0.0
2019-Jul-15 01:00N 47°40' W 122°24'0 0.0
2019-Jul-15 00:30N 47°40' W 122°24'0 0.0
2019-Jul-15 00:00N 47°40' W 122°24'0 0.0
2019-Jul-14 23:30N 47°40' W 122°24'0 0.0
2019-Jul-14 23:00N 47°40' W 122°24'0 0.0
2019-Jul-14 22:30N 47°40' W 122°24'0 0.0
2019-Jul-14 22:00N 47°40' W 122°24'0 0.0
2019-Jul-14 21:30N 47°40' W 122°24'0 0.0
2019-Jul-14 21:00N 47°40' W 122°24'0 0.0
2019-Jul-14 20:30N 47°40' W 122°24'0 0.0
2019-Jul-14 20:00N 47°40' W 122°24'0 0.0
2019-Jul-14 19:30N 47°40' W 122°24'0 0.0
2019-Jul-14 19:00N 47°40' W 122°24'0 0.0
2019-Jul-14 18:30N 47°40' W 122°24'0 0.0
2019-Jul-14 18:00N 47°40' W 122°24'0 0.0
2019-Jul-14 17:30N 47°40' W 122°24'0 0.0
2019-Jul-14 17:00N 47°40' W 122°24'0 0.0
2019-Jul-14 16:30N 47°40' W 122°24'0 0.0
2019-Jul-14 16:00N 47°40' W 122°24'0 0.0
2019-Jul-14 15:30N 47°40' W 122°24'0 0.0
2019-Jul-14 15:00N 47°40' W 122°24'0 0.0
2019-Jul-14 14:30N 47°40' W 122°24'0 0.0
2019-Jul-14 14:00N 47°40' W 122°24'0 0.0
2019-Jul-14 13:30N 47°40' W 122°24'0 0.0
2019-Jul-14 13:00N 47°40' W 122°24'0 0.0
2019-Jul-14 12:30N 47°40' W 122°24'0 0.0
2019-Jul-14 12:00N 47°40' W 122°24'0 0.0
2019-Jul-14 11:30N 47°40' W 122°24'0 0.0
2019-Jul-14 11:00N 47°40' W 122°24'0 0.0
2019-Jul-14 10:30N 47°40' W 122°24'0 0.0
2019-Jul-14 10:00N 47°40' W 122°24'0 0.0
2019-Jul-14 09:30N 47°40' W 122°24'0 0.0
2019-Jul-14 09:00N 47°40' W 122°24'0 0.0
2019-Jul-14 08:30N 47°40' W 122°24'0 0.0
2019-Jul-14 08:00N 47°40' W 122°24'0 0.0
2019-Jul-14 07:30N 47°40' W 122°24'0 0.0
2019-Jul-14 07:00N 47°40' W 122°24'0 0.0
2019-Jul-14 06:31N 47°40' W 122°24'0 0.0
2019-Jul-14 06:00N 47°40' W 122°24'0 0.0
2019-Jul-14 05:30N 47°40' W 122°24'0 0.0
2019-Jul-14 05:00N 47°40' W 122°24'0 0.0
2019-Jul-14 04:30N 47°40' W 122°24'0 0.0
2019-Jul-14 04:00N 47°40' W 122°24'0 0.0
2019-Jul-14 03:30N 47°40' W 122°24'0 0.0
2019-Jul-14 03:00N 47°40' W 122°24'0 0.0
2019-Jul-14 02:30N 47°40' W 122°24'0 0.0
2019-Jul-14 02:00N 47°40' W 122°24'0 0.0
2019-Jul-14 01:30N 47°40' W 122°24'0 0.0
2019-Jul-14 01:00N 47°40' W 122°24'0 0.0
2019-Jul-14 00:30N 47°40' W 122°24'0 0.0
2019-Jul-14 00:00N 47°40' W 122°24'0 0.0
2019-Jul-13 23:30N 47°40' W 122°24'0 0.0
2019-Jul-13 23:00N 47°40' W 122°24'0 0.0
2019-Jul-13 22:30N 47°40' W 122°24'0 0.0
2019-Jul-13 22:00N 47°40' W 122°24'0 0.0
2019-Jul-13 21:30N 47°40' W 122°24'  
Track history (hours):
 
Tides and Currents Weather Stations Pressure Air Temp Water Temp Dewpoint Dewpoint Depression Visibility Wind Speed Wind Dir Waves Ship Positions

Oceanographic research ship Ocean Starr (USA)

Owner: Ocean Starr Holding, LLC, Seattle, WA. More information available from US FCC via Universal Licensing System and Coast Guard Vessel Documentation Center.

Last reported at 2019-Jul-23 21:26 UTC. Time now 2019-Sep-22 02:01 UTC.
Position N 48°59' W 126°34'.
Warning: this ship's position is months out of date.

Length 56 m; draft 4 m.

Type: Other ship. MMSI: 367122000.

Date/timePositionNaut miles runAvg speedWind from/ knotsBaromVisibWave heightAir tempDewpointWater temp
2019-Jul-23 21:26N 48°59' W 126°34'3 7.6
2019-Jul-23 21:00N 48°58' W 126°30'4 7.1
2019-Jul-23 20:30N 48°56' W 126°25'4 8.0
2019-Jul-23 20:00N 48°55' W 126°19'4 7.8
2019-Jul-23 19:30N 48°53' W 126°14'4 7.7
2019-Jul-23 19:00N 48°51' W 126°08'4 7.7
2019-Jul-23 18:30N 48°50' W 126°03'4 8.3
2019-Jul-23 18:00N 48°48' W 125°58'4 8.2
2019-Jul-23 17:30N 48°46' W 125°52'4 8.1
2019-Jul-23 17:00N 48°44' W 125°47'4 8.1
2019-Jul-23 16:30N 48°42' W 125°41'4 8.3
2019-Jul-23 16:01N 48°40' W 125°36'4 8.4
2019-Jul-23 15:30N 48°39' W 125°30'4 8.1
2019-Jul-23 15:01N 48°37' W 125°24'4 8.2
2019-Jul-23 14:30N 48°35' W 125°19'4 8.3
2019-Jul-23 14:00N 48°34' W 125°13'4 8.5
2019-Jul-23 13:30N 48°33' W 125°06'4 8.4
2019-Jul-23 13:00N 48°32' W 125°00'4 8.6
2019-Jul-23 12:30N 48°32' W 124°54'4 9.0
2019-Jul-23 12:00N 48°32' W 124°47'5 9.3
2019-Jul-23 11:30N 48°31' W 124°40'5 9.3
2019-Jul-23 11:00N 48°29' W 124°34'5 9.2
2019-Jul-23 10:30N 48°27' W 124°27'5 9.5
2019-Jul-23 10:00N 48°25' W 124°21'5 9.6
2019-Jul-23 09:30N 48°23' W 124°14'5 9.6
2019-Jul-23 09:00N 48°21' W 124°08'5 9.4
2019-Jul-23 08:30N 48°20' W 124°01'5 9.6
2019-Jul-23 07:59N 48°18' W 123°54'5 9.4
2019-Jul-23 07:30N 48°17' W 123°47'5 9.2
2019-Jul-23 06:57N 48°17' W 123°40'4 9.0
2019-Jul-23 06:29N 48°16' W 123°33'4 8.5
2019-Jul-23 06:00N 48°15' W 123°27'4 7.7
2019-Jul-23 05:30N 48°15' W 123°22'4 7.8
2019-Jul-23 05:00N 48°14' W 123°16'4 7.9
2019-Jul-23 04:30N 48°13' W 123°10'4 7.6
2019-Jul-23 04:00N 48°13' W 123°04'4 7.1
2019-Jul-23 03:30N 48°13' W 122°59'4 7.0
2019-Jul-23 02:54N 48°12' W 122°53'6 5.5
2019-Jul-23 01:44N 48°10' W 122°44'1 4.6
2019-Jul-23 01:30N 48°09' W 122°43'2 4.5
2019-Jul-23 00:57N 48°08' W 122°40'3 6.7
2019-Jul-23 00:29N 48°05' W 122°38'4 7.3
2019-Jul-22 23:59N 48°01' W 122°37'4 7.5
2019-Jul-22 23:30N 47°58' W 122°34'4 8.0
2019-Jul-22 23:00N 47°56' W 122°29'4 8.3
2019-Jul-22 22:30N 47°52' W 122°27'4 8.6
2019-Jul-22 22:00N 47°48' W 122°26'4 8.7
2019-Jul-22 21:30N 47°43' W 122°25'3 6.7
2019-Jul-22 21:00N 47°40' W 122°24'0 0.6
2019-Jul-22 20:31N 47°40' W 122°23'0 0.2
2019-Jul-22 20:00N 47°40' W 122°24'0 0.0
2019-Jul-22 19:30N 47°40' W 122°24'0 0.0
2019-Jul-22 19:00N 47°40' W 122°24'0 0.0
2019-Jul-22 18:30N 47°40' W 122°24'0 0.0
2019-Jul-22 18:00N 47°40' W 122°24'0 0.0
2019-Jul-22 17:30N 47°40' W 122°24'0 0.0
2019-Jul-22 17:00N 47°40' W 122°24'0 0.0
2019-Jul-22 16:30N 47°40' W 122°24'0 0.0
2019-Jul-22 16:00N 47°40' W 122°24'0 0.0
2019-Jul-22 15:30N 47°40' W 122°24'0 0.0
2019-Jul-22 15:00N 47°40' W 122°24'0 0.0
2019-Jul-22 14:30N 47°40' W 122°24'0 0.0
2019-Jul-22 14:00N 47°40' W 122°24'0 0.0
2019-Jul-22 13:30N 47°40' W 122°24'0 0.0
2019-Jul-22 13:00N 47°40' W 122°24'0 0.0
2019-Jul-22 12:30N 47°40' W 122°24'0 0.0
2019-Jul-22 12:00N 47°40' W 122°24'0 0.0
2019-Jul-22 11:30N 47°40' W 122°24'0 0.0
2019-Jul-22 11:00N 47°40' W 122°24'0 0.0
2019-Jul-22 10:30N 47°40' W 122°24'0 0.0
2019-Jul-22 10:00N 47°40' W 122°24'0 0.0
2019-Jul-22 09:30N 47°40' W 122°24'0 0.0
2019-Jul-22 09:00N 47°40' W 122°24'0 0.0
2019-Jul-22 08:30N 47°40' W 122°24'0 0.0
2019-Jul-22 08:00N 47°40' W 122°24'0 0.0
2019-Jul-22 07:30N 47°40' W 122°24'0 0.0
2019-Jul-22 07:00N 47°40' W 122°24'0 0.0
2019-Jul-22 06:30N 47°40' W 122°24'0 0.0
2019-Jul-22 06:00N 47°40' W 122°24'0 0.0
2019-Jul-22 05:30N 47°40' W 122°24'0 0.0
2019-Jul-22 05:00N 47°40' W 122°24'0 0.0
2019-Jul-22 04:30N 47°40' W 122°24'0 0.0
2019-Jul-22 04:00N 47°40' W 122°24'0 0.0
2019-Jul-22 03:30N 47°40' W 122°24'0 0.0
2019-Jul-22 03:00N 47°40' W 122°24'0 0.0
2019-Jul-22 02:30N 47°40' W 122°24'0 0.0
2019-Jul-22 02:00N 47°40' W 122°24'0 0.2
2019-Jul-22 01:30N 47°40' W 122°23'0 0.4
2019-Jul-22 01:00N 47°40' W 122°24'0 0.5
2019-Jul-22 00:30N 47°40' W 122°24'2 3.7
2019-Jul-22 00:00N 47°42' W 122°25'2 3.5
2019-Jul-21 23:30N 47°43' W 122°25'2 3.0
2019-Jul-21 23:00N 47°45' W 122°25'3 6.2
2019-Jul-21 22:30N 47°43' W 122°29'1 2.9
2019-Jul-21 22:00N 47°43' W 122°31'0 0.0
2019-Jul-21 21:30N 47°43' W 122°31'0 0.0
2019-Jul-21 21:00N 47°43' W 122°31'0 0.0
2019-Jul-21 20:30N 47°43' W 122°31'0 0.0
2019-Jul-21 20:00N 47°43' W 122°31'0 0.0
2019-Jul-21 19:30N 47°43' W 122°31'0 0.0
2019-Jul-21 19:00N 47°43' W 122°31'0 0.0
2019-Jul-21 18:30N 47°43' W 122°31'0 0.0
2019-Jul-21 18:00N 47°43' W 122°31'0 0.0
2019-Jul-21 17:30N 47°43' W 122°31'0 0.0
2019-Jul-21 17:00N 47°43' W 122°31'0 0.1
2019-Jul-21 16:30N 47°43' W 122°31'0 0.0
2019-Jul-21 16:00N 47°43' W 122°31'0 0.1
2019-Jul-21 15:30N 47°43' W 122°31'0 0.9
2019-Jul-21 15:00N 47°43' W 122°30'4 7.5
2019-Jul-21 14:30N 47°41' W 122°25'1 1.3
2019-Jul-21 14:01N 47°41' W 122°25'0 0.3
2019-Jul-21 13:31N 47°41' W 122°25'1 1.3
2019-Jul-21 12:58N 47°40' W 122°26'0 0.0
2019-Jul-21 12:28N 47°40' W 122°26'0 0.0
2019-Jul-21 12:01N 47°40' W 122°26'0 0.1
2019-Jul-21 11:31N 47°40' W 122°26'0 0.1
2019-Jul-21 11:00N 47°40' W 122°26'0 0.0
2019-Jul-21 10:30N 47°40' W 122°26'0 0.1
2019-Jul-21 10:00N 47°40' W 122°26'0 0.1
2019-Jul-21 09:30N 47°40' W 122°26'0 0.0
2019-Jul-21 09:00N 47°40' W 122°26'0 0.0
2019-Jul-21 08:30N 47°40' W 122°26'0 0.0
2019-Jul-21 08:00N 47°40' W 122°26'0 0.1
2019-Jul-21 07:30N 47°40' W 122°26'0 0.1
2019-Jul-21 07:00N 47°40' W 122°26'0 0.0
2019-Jul-21 06:30N 47°40' W 122°26'0 0.0
2019-Jul-21 06:00N 47°40' W 122°26'0 0.0
2019-Jul-21 05:30N 47°40' W 122°26'0 0.0
2019-Jul-21 05:00N 47°40' W 122°26'0 0.0
2019-Jul-21 04:30N 47°40' W 122°26'0 0.0
2019-Jul-21 04:00N 47°40' W 122°26'0 0.0
2019-Jul-21 03:30N 47°40' W 122°26'0 0.2
2019-Jul-21 03:00N 47°40' W 122°26'1 1.7
2019-Jul-21 02:30N 47°41' W 122°25'0 0.5
2019-Jul-21 02:00N 47°41' W 122°25'4 7.8
2019-Jul-21 01:30N 47°45' W 122°25'0 0.5
2019-Jul-21 01:00N 47°45' W 122°25'1 2.2
2019-Jul-21 00:30N 47°44' W 122°25'1 1.8
2019-Jul-21 00:00N 47°45' W 122°25'1 2.4
2019-Jul-20 23:30N 47°46' W 122°25'2 3.2
2019-Jul-20 23:01N 47°45' W 122°27'1 2.0
2019-Jul-20 22:30N 47°45' W 122°26'1 2.9
2019-Jul-20 22:00N 47°44' W 122°25'0 0.7
2019-Jul-20 21:30N 47°43' W 122°25'2 3.2
2019-Jul-20 21:00N 47°45' W 122°24'2 3.3
2019-Jul-20 20:30N 47°46' W 122°25'1 1.5
2019-Jul-20 20:00N 47°47' W 122°25'1 1.1
2019-Jul-20 19:30N 47°47' W 122°25'1 2.6
2019-Jul-20 19:00N 47°45' W 122°24'1 2.8
2019-Jul-20 18:30N 47°44' W 122°24'1 1.9
2019-Jul-20 18:00N 47°43' W 122°24'1 1.5
2019-Jul-20 17:30N 47°44' W 122°25'1 1.7
2019-Jul-20 17:00N 47°45' W 122°24'1 1.3
2019-Jul-20 16:30N 47°44' W 122°25'1 2.5
2019-Jul-20 16:00N 47°43' W 122°25'1 1.7
2019-Jul-20 15:30N 47°42' W 122°25'1 1.9
2019-Jul-20 15:00N 47°41' W 122°25'1 2.7
2019-Jul-20 14:30N 47°40' W 122°24'0 0.4
2019-Jul-20 14:00N 47°40' W 122°24'0 0.0
2019-Jul-20 13:30N 47°40' W 122°24'0 0.0
2019-Jul-20 13:00N 47°40' W 122°24'0 0.0
2019-Jul-20 12:30N 47°40' W 122°24'0 0.0
2019-Jul-20 12:00N 47°40' W 122°24'0 0.0
2019-Jul-20 11:30N 47°40' W 122°24'0 0.0
2019-Jul-20 11:00N 47°40' W 122°24'0 0.0
2019-Jul-20 10:30N 47°40' W 122°24'0 0.0
2019-Jul-20 10:00N 47°40' W 122°24'0 0.0
2019-Jul-20 09:30N 47°40' W 122°24'0 0.0
2019-Jul-20 09:00N 47°40' W 122°24'0 0.0
2019-Jul-20 08:30N 47°40' W 122°24'0 0.0
2019-Jul-20 08:00N 47°40' W 122°24'0 0.0
2019-Jul-20 07:30N 47°40' W 122°24'0 0.0
2019-Jul-20 07:00N 47°40' W 122°24'0 0.0
2019-Jul-20 06:30N 47°40' W 122°24'0 0.0
2019-Jul-20 06:00N 47°40' W 122°24'0 0.0
2019-Jul-20 05:30N 47°40' W 122°24'0 0.0
2019-Jul-20 05:00N 47°40' W 122°24'0 0.0
2019-Jul-20 04:30N 47°40' W 122°24'0 0.0
2019-Jul-20 04:00N 47°40' W 122°24'0 0.0
2019-Jul-20 03:30N 47°40' W 122°24'0 0.0
2019-Jul-20 03:00N 47°40' W 122°24'0 0.0
2019-Jul-20 02:30N 47°40' W 122°24'0 0.0
2019-Jul-20 02:00N 47°40' W 122°24'0 0.0
2019-Jul-20 01:30N 47°40' W 122°24'0 0.0
2019-Jul-20 01:00N 47°40' W 122°24'0 0.0
2019-Jul-20 00:30N 47°40' W 122°24'0 0.0
2019-Jul-20 00:00N 47°40' W 122°24'0 0.0
2019-Jul-19 23:30N 47°40' W 122°24'0 0.0
2019-Jul-19 23:00N 47°40' W 122°24'0 0.0
2019-Jul-19 22:30N 47°40' W 122°24'0 0.0
2019-Jul-19 22:00N 47°40' W 122°24'0 0.0
2019-Jul-19 21:30N 47°40' W 122°24'0 0.0
2019-Jul-19 21:00N 47°40' W 122°24'0 0.0
2019-Jul-19 20:30N 47°40' W 122°24'0 0.0
2019-Jul-19 20:00N 47°40' W 122°24'0 0.0
2019-Jul-19 19:30N 47°40' W 122°24'0 0.0
2019-Jul-19 19:00N 47°40' W 122°24'0 0.0
2019-Jul-19 18:30N 47°40' W 122°24'0 0.0
2019-Jul-19 18:00N 47°40' W 122°24'0 0.0
2019-Jul-19 17:30N 47°40' W 122°24'0 0.0
2019-Jul-19 17:00N 47°40' W 122°24'0 0.0
2019-Jul-19 16:30N 47°40' W 122°24'0 0.0
2019-Jul-19 16:00N 47°40' W 122°24'0 0.0
2019-Jul-19 15:30N 47°40' W 122°24'0 0.0
2019-Jul-19 15:00N 47°40' W 122°24'0 0.0
2019-Jul-19 14:30N 47°40' W 122°24'0 0.0
2019-Jul-19 14:00N 47°40' W 122°24'0 0.0
2019-Jul-19 13:30N 47°40' W 122°24'0 0.0
2019-Jul-19 13:00N 47°40' W 122°24'0 0.0
2019-Jul-19 12:30N 47°40' W 122°24'0 0.0
2019-Jul-19 12:00N 47°40' W 122°24'0 0.0
2019-Jul-19 11:30N 47°40' W 122°24'0 0.0
2019-Jul-19 11:00N 47°40' W 122°24'0 0.0
2019-Jul-19 10:30N 47°40' W 122°24'0 0.0
2019-Jul-19 10:00N 47°40' W 122°24'0 0.0
2019-Jul-19 09:30N 47°40' W 122°24'0 0.0
2019-Jul-19 09:00N 47°40' W 122°24'0 0.0
2019-Jul-19 08:30N 47°40' W 122°24'0 0.0
2019-Jul-19 08:00N 47°40' W 122°24'0 0.0
2019-Jul-19 07:30N 47°40' W 122°24'0 0.0
2019-Jul-19 07:00N 47°40' W 122°24'0 0.0
2019-Jul-19 06:30N 47°40' W 122°24'0 0.0
2019-Jul-19 06:00N 47°40' W 122°24'0 0.0
2019-Jul-19 05:30N 47°40' W 122°24'0 0.0
2019-Jul-19 05:00N 47°40' W 122°24'0 0.0
2019-Jul-19 04:30N 47°40' W 122°24'0 0.0
2019-Jul-19 04:00N 47°40' W 122°24'0 0.0
2019-Jul-19 03:30N 47°40' W 122°24'0 0.0
2019-Jul-19 03:00N 47°40' W 122°24'0 0.0
2019-Jul-19 02:30N 47°40' W 122°24'0 0.0
2019-Jul-19 02:00N 47°40' W 122°24'0 0.0
2019-Jul-19 01:30N 47°40' W 122°24'0 0.0
2019-Jul-19 01:00N 47°40' W 122°24'0 0.0
2019-Jul-19 00:30N 47°40' W 122°24'0 0.0
2019-Jul-19 00:00N 47°40' W 122°24'0 0.0
2019-Jul-18 23:30N 47°40' W 122°24'0 0.0
2019-Jul-18 23:00N 47°40' W 122°24'0 0.0
2019-Jul-18 22:30N 47°40' W 122°24'0 0.0
2019-Jul-18 22:00N 47°40' W 122°24'0 0.0
2019-Jul-18 21:30N 47°40' W 122°24'0 0.3
2019-Jul-18 21:01N 47°40' W 122°23'0 0.2
2019-Jul-18 20:30N 47°40' W 122°23'0 0.0
2019-Jul-18 20:00N 47°40' W 122°23'0 0.0
2019-Jul-18 19:30N 47°40' W 122°23'0 0.0
2019-Jul-18 19:00N 47°40' W 122°23'0 0.0
2019-Jul-18 18:30N 47°40' W 122°23'0 0.0
2019-Jul-18 18:00N 47°40' W 122°23'0 0.0
2019-Jul-18 17:30N 47°40' W 122°23'0 0.0
2019-Jul-18 17:00N 47°40' W 122°23'0 0.0
2019-Jul-18 16:30N 47°40' W 122°23'0 0.3
2019-Jul-18 16:00N 47°40' W 122°24'0 0.1
2019-Jul-18 15:30N 47°40' W 122°24'0 0.0
2019-Jul-18 15:00N 47°40' W 122°24'0 0.0
2019-Jul-18 14:30N 47°40' W 122°24'0 0.0
2019-Jul-18 14:00N 47°40' W 122°24'0 0.0
2019-Jul-18 13:30N 47°40' W 122°24'0 0.0
2019-Jul-18 13:00N 47°40' W 122°24'0 0.0
2019-Jul-18 12:30N 47°40' W 122°24'0 0.0
2019-Jul-18 12:00N 47°40' W 122°24'0 0.0
2019-Jul-18 11:30N 47°40' W 122°24'0 0.0
2019-Jul-18 11:00N 47°40' W 122°24'0 0.0
2019-Jul-18 10:30N 47°40' W 122°24'0 0.0
2019-Jul-18 10:00N 47°40' W 122°24'0 0.0
2019-Jul-18 09:30N 47°40' W 122°24'0 0.0
2019-Jul-18 09:00N 47°40' W 122°24'0 0.0
2019-Jul-18 08:30N 47°40' W 122°24'0 0.0
2019-Jul-18 08:00N 47°40' W 122°24'0 0.0
2019-Jul-18 07:30N 47°40' W 122°24'0 0.0
2019-Jul-18 07:00N 47°40' W 122°24'0 0.0
2019-Jul-18 06:30N 47°40' W 122°24'0 0.0
2019-Jul-18 06:00N 47°40' W 122°24'0 0.0
2019-Jul-18 05:30N 47°40' W 122°24'0 0.0
2019-Jul-18 05:00N 47°40' W 122°24'0 0.0
2019-Jul-18 04:30N 47°40' W 122°24'0 0.0
2019-Jul-18 04:00N 47°40' W 122°24'0 0.0
2019-Jul-18 03:30N 47°40' W 122°24'0 0.0
2019-Jul-18 03:00N 47°40' W 122°24'0 0.0
2019-Jul-18 02:30N 47°40' W 122°24'0 0.0
2019-Jul-18 02:00N 47°40' W 122°24'0 0.0
2019-Jul-18 01:30N 47°40' W 122°24'0 0.0
2019-Jul-18 01:00N 47°40' W 122°24'0 0.0
2019-Jul-18 00:30N 47°40' W 122°24'0 0.0
2019-Jul-18 00:00N 47°40' W 122°24'0 0.0
2019-Jul-17 23:30N 47°40' W 122°24'0 0.0
2019-Jul-17 23:00N 47°40' W 122°24'0 0.0
2019-Jul-17 22:30N 47°40' W 122°24'0 0.0
2019-Jul-17 22:00N 47°40' W 122°24'0 0.0
2019-Jul-17 21:30N 47°40' W 122°24'0 0.0
2019-Jul-17 21:00N 47°40' W 122°24'0 0.0
2019-Jul-17 20:30N 47°40' W 122°24'0 0.0
2019-Jul-17 20:00N 47°40' W 122°24'0 0.0
2019-Jul-17 19:30N 47°40' W 122°24'0 0.0
2019-Jul-17 19:00N 47°40' W 122°24'0 0.0
2019-Jul-17 18:30N 47°40' W 122°24'0 0.0
2019-Jul-17 18:00N 47°40' W 122°24'0 0.0
2019-Jul-17 17:30N 47°40' W 122°24'0 0.0
2019-Jul-17 17:00N 47°40' W 122°24'0 0.0
2019-Jul-17 16:30N 47°40' W 122°24'0 0.0
2019-Jul-17 16:00N 47°40' W 122°24'0 0.0
2019-Jul-17 15:30N 47°40' W 122°24'0 0.0
2019-Jul-17 15:00N 47°40' W 122°24'0 0.0
2019-Jul-17 14:30N 47°40' W 122°24'0 0.0
2019-Jul-17 14:00N 47°40' W 122°24'0 0.0
2019-Jul-17 13:30N 47°40' W 122°24'0 0.0
2019-Jul-17 13:00N 47°40' W 122°24'0 0.0
2019-Jul-17 12:30N 47°40' W 122°24'0 0.0
2019-Jul-17 12:00N 47°40' W 122°24'0 0.0
2019-Jul-17 11:30N 47°40' W 122°24'0 0.0
2019-Jul-17 11:00N 47°40' W 122°24'0 0.0
2019-Jul-17 10:30N 47°40' W 122°24'0 0.0
2019-Jul-17 10:00N 47°40' W 122°24'0 0.0
2019-Jul-17 09:30N 47°40' W 122°24'0 0.0
2019-Jul-17 09:00N 47°40' W 122°24'0 0.0
2019-Jul-17 08:30N 47°40' W 122°24'0 0.0
2019-Jul-17 08:00N 47°40' W 122°24'0 0.0
2019-Jul-17 07:30N 47°40' W 122°24'0 0.0
2019-Jul-17 07:00N 47°40' W 122°24'0 0.0
2019-Jul-17 06:30N 47°40' W 122°24'0 0.0
2019-Jul-17 06:00N 47°40' W 122°24'0 0.0
2019-Jul-17 05:30N 47°40' W 122°24'0 0.0
2019-Jul-17 05:00N 47°40' W 122°24'0 0.0
2019-Jul-17 04:30N 47°40' W 122°24'0 0.0
2019-Jul-17 04:00N 47°40' W 122°24'0 0.0
2019-Jul-17 03:30N 47°40' W 122°24'0 0.0
2019-Jul-17 03:00N 47°40' W 122°24'0 0.0
2019-Jul-17 02:30N 47°40' W 122°24'0 0.0
2019-Jul-17 02:00N 47°40' W 122°24'0 0.0
2019-Jul-17 01:30N 47°40' W 122°24'0 0.0
2019-Jul-17 01:00N 47°40' W 122°24'0 0.0
2019-Jul-17 00:30N 47°40' W 122°24'0 0.0
2019-Jul-17 00:00N 47°40' W 122°24'0 0.0
2019-Jul-16 23:30N 47°40' W 122°24'0 0.0
2019-Jul-16 23:00N 47°40' W 122°24'0 0.0
2019-Jul-16 22:30N 47°40' W 122°24'0 0.0
2019-Jul-16 22:00N 47°40' W 122°24'0 0.0
2019-Jul-16 21:30N 47°40' W 122°24'0 0.0
2019-Jul-16 21:00N 47°40' W 122°24'0 0.0
2019-Jul-16 20:30N 47°40' W 122°24'0 0.0
2019-Jul-16 20:00N 47°40' W 122°24'0 0.0
2019-Jul-16 19:30N 47°40' W 122°24'0 0.0
2019-Jul-16 19:00N 47°40' W 122°24'0 0.0
2019-Jul-16 18:30N 47°40' W 122°24'0 0.0
2019-Jul-16 18:00N 47°40' W 122°24'0 0.0
2019-Jul-16 17:30N 47°40' W 122°24'0 0.0
2019-Jul-16 17:00N 47°40' W 122°24'0 0.0
2019-Jul-16 16:30N 47°40' W 122°24'0 0.0
2019-Jul-16 16:00N 47°40' W 122°24'0 0.0
2019-Jul-16 15:30N 47°40' W 122°24'0 0.0
2019-Jul-16 15:00N 47°40' W 122°24'0 0.0
2019-Jul-16 14:30N 47°40' W 122°24'0 0.0
2019-Jul-16 14:00N 47°40' W 122°24'0 0.0
2019-Jul-16 13:30N 47°40' W 122°24'0 0.0
2019-Jul-16 13:00N 47°40' W 122°24'0 0.0
2019-Jul-16 12:30N 47°40' W 122°24'0 0.0
2019-Jul-16 12:00N 47°40' W 122°24'0 0.0
2019-Jul-16 11:30N 47°40' W 122°24'0 0.0
2019-Jul-16 11:00N 47°40' W 122°24'0 0.0
2019-Jul-16 10:30N 47°40' W 122°24'0 0.0
2019-Jul-16 10:00N 47°40' W 122°24'0 0.0
2019-Jul-16 09:30N 47°40' W 122°24'0 0.0
2019-Jul-16 09:00N 47°40' W 122°24'0 0.0
2019-Jul-16 08:30N 47°40' W 122°24'0 0.0
2019-Jul-16 08:00N 47°40' W 122°24'0 0.0
2019-Jul-16 07:30N 47°40' W 122°24'0 0.0
2019-Jul-16 07:00N 47°40' W 122°24'0 0.0
2019-Jul-16 06:30N 47°40' W 122°24'0 0.0
2019-Jul-16 06:00N 47°40' W 122°24'0 0.0
2019-Jul-16 05:30N 47°40' W 122°24'0 0.0
2019-Jul-16 05:00N 47°40' W 122°24'0 0.0
2019-Jul-16 04:30N 47°40' W 122°24'0 0.0
2019-Jul-16 04:00N 47°40' W 122°24'0 0.0
2019-Jul-16 03:30N 47°40' W 122°24'0 0.0
2019-Jul-16 03:00N 47°40' W 122°24'0 0.0
2019-Jul-16 02:30N 47°40' W 122°24'0 0.0
2019-Jul-16 02:00N 47°40' W 122°24'0 0.0
2019-Jul-16 01:30N 47°40' W 122°24'0 0.0
2019-Jul-16 01:00N 47°40' W 122°24'0 0.0
2019-Jul-16 00:30N 47°40' W 122°24'0 0.0
2019-Jul-16 00:00N 47°40' W 122°24'0 0.0
2019-Jul-15 23:30N 47°40' W 122°24'0 0.0
2019-Jul-15 23:00N 47°40' W 122°24'0 0.0
2019-Jul-15 22:30N 47°40' W 122°24'0 0.0
2019-Jul-15 22:00N 47°40' W 122°24'0 0.0
2019-Jul-15 21:30N 47°40' W 122°24'0 0.0
2019-Jul-15 21:00N 47°40' W 122°24'0 0.0
2019-Jul-15 20:30N 47°40' W 122°24'0 0.0
2019-Jul-15 20:00N 47°40' W 122°24'0 0.0
2019-Jul-15 19:30N 47°40' W 122°24'0 0.0
2019-Jul-15 19:00N 47°40' W 122°24'0 0.0
2019-Jul-15 18:30N 47°40' W 122°24'0 0.0
2019-Jul-15 18:00N 47°40' W 122°24'0 0.0
2019-Jul-15 17:30N 47°40' W 122°24'0 0.0
2019-Jul-15 17:00N 47°40' W 122°24'0 0.0
2019-Jul-15 16:30N 47°40' W 122°24'0 0.0
2019-Jul-15 16:00N 47°40' W 122°24'0 0.0
2019-Jul-15 15:30N 47°40' W 122°24'0 0.0
2019-Jul-15 15:00N 47°40' W 122°24'0 0.0
2019-Jul-15 14:30N 47°40' W 122°24'0 0.0
2019-Jul-15 14:00N 47°40' W 122°24'0 0.0
2019-Jul-15 13:30N 47°40' W 122°24'0 0.0
2019-Jul-15 13:00N 47°40' W 122°24'0 0.0
2019-Jul-15 12:30N 47°40' W 122°24'0 0.0
2019-Jul-15 12:00N 47°40' W 122°24'0 0.0
2019-Jul-15 11:30N 47°40' W 122°24'0 0.0
2019-Jul-15 11:00N 47°40' W 122°24'0 0.0
2019-Jul-15 10:30N 47°40' W 122°24'0 0.0
2019-Jul-15 10:00N 47°40' W 122°24'0 0.0
2019-Jul-15 09:30N 47°40' W 122°24'0 0.0
2019-Jul-15 09:00N 47°40' W 122°24'0 0.0
2019-Jul-15 08:30N 47°40' W 122°24'0 0.0
2019-Jul-15 08:00N 47°40' W 122°24'0 0.0
2019-Jul-15 07:30N 47°40' W 122°24'0 0.0
2019-Jul-15 07:00N 47°40' W 122°24'0 0.0
2019-Jul-15 06:30N 47°40' W 122°24'0 0.0
2019-Jul-15 06:00N 47°40' W 122°24'0 0.0
2019-Jul-15 05:30N 47°40' W 122°24'0 0.0
2019-Jul-15 05:00N 47°40' W 122°24'0 0.0
2019-Jul-15 04:30N 47°40' W 122°24'0 0.0
2019-Jul-15 04:00N 47°40' W 122°24'0 0.0
2019-Jul-15 03:30N 47°40' W 122°24'0 0.0
2019-Jul-15 03:00N 47°40' W 122°24'0 0.0
2019-Jul-15 02:30N 47°40' W 122°24'0 0.0
2019-Jul-15 02:00N 47°40' W 122°24'0 0.0
2019-Jul-15 01:30N 47°40' W 122°24'0 0.0
2019-Jul-15 01:00N 47°40' W 122°24'0 0.0
2019-Jul-15 00:30N 47°40' W 122°24'0 0.0
2019-Jul-15 00:00N 47°40' W 122°24'0 0.0
2019-Jul-14 23:30N 47°40' W 122°24'0 0.0
2019-Jul-14 23:00N 47°40' W 122°24'0 0.0
2019-Jul-14 22:30N 47°40' W 122°24'0 0.0
2019-Jul-14 22:00N 47°40' W 122°24'0 0.0
2019-Jul-14 21:30N 47°40' W 122°24'0 0.0
2019-Jul-14 21:00N 47°40' W 122°24'0 0.0
2019-Jul-14 20:30N 47°40' W 122°24'0 0.0
2019-Jul-14 20:00N 47°40' W 122°24'0 0.0
2019-Jul-14 19:30N 47°40' W 122°24'0 0.0
2019-Jul-14 19:00N 47°40' W 122°24'0 0.0
2019-Jul-14 18:30N 47°40' W 122°24'0 0.0
2019-Jul-14 18:00N 47°40' W 122°24'0 0.0
2019-Jul-14 17:30N 47°40' W 122°24'0 0.0
2019-Jul-14 17:00N 47°40' W 122°24'0 0.0
2019-Jul-14 16:30N 47°40' W 122°24'0 0.0
2019-Jul-14 16:00N 47°40' W 122°24'0 0.0
2019-Jul-14 15:30N 47°40' W 122°24'0 0.0
2019-Jul-14 15:00N 47°40' W 122°24'0 0.0
2019-Jul-14 14:30N 47°40' W 122°24'0 0.0
2019-Jul-14 14:00N 47°40' W 122°24'0 0.0
2019-Jul-14 13:30N 47°40' W 122°24'0 0.0
2019-Jul-14 13:00N 47°40' W 122°24'0 0.0
2019-Jul-14 12:30N 47°40' W 122°24'0 0.0
2019-Jul-14 12:00N 47°40' W 122°24'0 0.0
2019-Jul-14 11:30N 47°40' W 122°24'0 0.0
2019-Jul-14 11:00N 47°40' W 122°24'0 0.0
2019-Jul-14 10:30N 47°40' W 122°24'0 0.0
2019-Jul-14 10:00N 47°40' W 122°24'0 0.0
2019-Jul-14 09:30N 47°40' W 122°24'0 0.0
2019-Jul-14 09:00N 47°40' W 122°24'0 0.0
2019-Jul-14 08:30N 47°40' W 122°24'0 0.0
2019-Jul-14 08:00N 47°40' W 122°24'0 0.0
2019-Jul-14 07:30N 47°40' W 122°24'0 0.0
2019-Jul-14 07:00N 47°40' W 122°24'0 0.0
2019-Jul-14 06:31N 47°40' W 122°24'0 0.0
2019-Jul-14 06:00N 47°40' W 122°24'0 0.0
2019-Jul-14 05:30N 47°40' W 122°24'0 0.0
2019-Jul-14 05:00N 47°40' W 122°24'0 0.0
2019-Jul-14 04:30N 47°40' W 122°24'0 0.0
2019-Jul-14 04:00N 47°40' W 122°24'0 0.0
2019-Jul-14 03:30N 47°40' W 122°24'0 0.0
2019-Jul-14 03:00N 47°40' W 122°24'0 0.0
2019-Jul-14 02:30N 47°40' W 122°24'0 0.0
2019-Jul-14 02:00N 47°40' W 122°24'0 0.0
2019-Jul-14 01:30N 47°40' W 122°24'0 0.0
2019-Jul-14 01:00N 47°40' W 122°24'0 0.0
2019-Jul-14 00:30N 47°40' W 122°24'0 0.0
2019-Jul-14 00:00N 47°40' W 122°24'0 0.0
2019-Jul-13 23:30N 47°40' W 122°24'0 0.0
2019-Jul-13 23:00N 47°40' W 122°24'0 0.0
2019-Jul-13 22:30N 47°40' W 122°24'0 0.0
2019-Jul-13 22:00N 47°40' W 122°24'0 0.0
2019-Jul-13 21:30N 47°40' W 122°24'  

Dump ship's entire track history